sensor_id;sensor_type;location;lat;lon;timestamp;temperature;humidity
57636;DHT22;43465;50.728;4.160;2023-05-29T00:00:18;16.20;99.90
57636;DHT22;43465;50.728;4.160;2023-05-29T00:02:46;16.10;99.90
57636;DHT22;43465;50.728;4.160;2023-05-29T00:05:12;16.00;99.90
57636;DHT22;43465;50.728;4.160;2023-05-29T00:07:41;16.10;99.90
57636;DHT22;43465;50.728;4.160;2023-05-29T00:10:08;16.00;99.90
57636;DHT22;43465;50.728;4.160;2023-05-29T00:12:35;15.80;99.90
57636;DHT22;43465;50.728;4.160;2023-05-29T00:15:01;15.80;99.90
57636;DHT22;43465;50.728;4.160;2023-05-29T00:17:29;15.70;99.90
57636;DHT22;43465;50.728;4.160;2023-05-29T00:20:00;15.70;99.90
57636;DHT22;43465;50.728;4.160;2023-05-29T00:22:27;15.70;99.90
57636;DHT22;43465;50.728;4.160;2023-05-29T00:24:53;15.60;99.90
57636;DHT22;43465;50.728;4.160;2023-05-29T00:27:19;15.50;99.90
57636;DHT22;43465;50.728;4.160;2023-05-29T00:29:45;15.50;99.90
57636;DHT22;43465;50.728;4.160;2023-05-29T00:32:11;15.40;99.90
57636;DHT22;43465;50.728;4.160;2023-05-29T00:34:37;15.40;99.90
57636;DHT22;43465;50.728;4.160;2023-05-29T00:37:02;15.40;99.90
57636;DHT22;43465;50.728;4.160;2023-05-29T00:39:28;15.50;99.90
57636;DHT22;43465;50.728;4.160;2023-05-29T00:41:55;15.30;99.90
57636;DHT22;43465;50.728;4.160;2023-05-29T00:44:21;15.30;99.90
57636;DHT22;43465;50.728;4.160;2023-05-29T00:46:49;15.30;99.90
57636;DHT22;43465;50.728;4.160;2023-05-29T00:49:16;15.40;99.90
57636;DHT22;43465;50.728;4.160;2023-05-29T00:51:43;15.30;99.90
57636;DHT22;43465;50.728;4.160;2023-05-29T00:54:12;15.30;99.90
57636;DHT22;43465;50.728;4.160;2023-05-29T00:56:39;15.20;99.90
57636;DHT22;43465;50.728;4.160;2023-05-29T00:59:08;15.10;99.90
57636;DHT22;43465;50.728;4.160;2023-05-29T01:01:34;15.10;99.90
57636;DHT22;43465;50.728;4.160;2023-05-29T01:04:03;15.00;99.90
57636;DHT22;43465;50.728;4.160;2023-05-29T01:06:32;15.10;99.90
57636;DHT22;43465;50.728;4.160;2023-05-29T01:08:58;15.10;99.90
57636;DHT22;43465;50.728;4.160;2023-05-29T01:13:58;14.80;99.90
57636;DHT22;43465;50.728;4.160;2023-05-29T01:16:35;14.70;99.90
57636;DHT22;43465;50.728;4.160;2023-05-29T01:22:12;14.70;99.90
57636;DHT22;43465;50.728;4.160;2023-05-29T01:24:58;14.60;99.90
57636;DHT22;43465;50.728;4.160;2023-05-29T01:27:30;14.60;99.90
57636;DHT22;43465;50.728;4.160;2023-05-29T01:29:58;14.70;99.90
57636;DHT22;43465;50.728;4.160;2023-05-29T01:32:24;14.50;99.90
57636;DHT22;43465;50.728;4.160;2023-05-29T01:34:51;14.60;99.90
57636;DHT22;43465;50.728;4.160;2023-05-29T01:37:17;14.50;99.90
57636;DHT22;43465;50.728;4.160;2023-05-29T01:39:42;14.50;99.90
57636;DHT22;43465;50.728;4.160;2023-05-29T01:42:08;14.40;99.90
57636;DHT22;43465;50.728;4.160;2023-05-29T01:44:36;14.30;99.90
57636;DHT22;43465;50.728;4.160;2023-05-29T01:47:02;14.40;99.90
57636;DHT22;43465;50.728;4.160;2023-05-29T01:49:28;14.30;99.90
57636;DHT22;43465;50.728;4.160;2023-05-29T01:51:55;14.30;99.90
57636;DHT22;43465;50.728;4.160;2023-05-29T01:54:21;14.30;99.90
57636;DHT22;43465;50.728;4.160;2023-05-29T01:56:47;14.30;99.90
57636;DHT22;43465;50.728;4.160;2023-05-29T01:59:15;14.30;99.90
57636;DHT22;43465;50.728;4.160;2023-05-29T02:01:41;14.10;99.90
57636;DHT22;43465;50.728;4.160;2023-05-29T02:04:07;14.00;99.90
57636;DHT22;43465;50.728;4.160;2023-05-29T02:06:33;14.10;99.90
57636;DHT22;43465;50.728;4.160;2023-05-29T02:08:59;14.10;99.90
57636;DHT22;43465;50.728;4.160;2023-05-29T02:11:25;14.20;99.90
57636;DHT22;43465;50.728;4.160;2023-05-29T02:13:51;14.10;99.90
57636;DHT22;43465;50.728;4.160;2023-05-29T02:16:18;14.00;99.90
57636;DHT22;43465;50.728;4.160;2023-05-29T02:18:46;14.00;99.90
57636;DHT22;43465;50.728;4.160;2023-05-29T02:21:12;13.90;99.90
57636;DHT22;43465;50.728;4.160;2023-05-29T02:23:38;13.90;99.90
57636;DHT22;43465;50.728;4.160;2023-05-29T02:26:04;13.90;99.90
57636;DHT22;43465;50.728;4.160;2023-05-29T02:28:30;13.90;99.90
57636;DHT22;43465;50.728;4.160;2023-05-29T02:30:55;13.80;99.90
57636;DHT22;43465;50.728;4.160;2023-05-29T02:33:21;13.90;99.90
57636;DHT22;43465;50.728;4.160;2023-05-29T02:35:47;13.90;99.90
57636;DHT22;43465;50.728;4.160;2023-05-29T02:38:12;13.70;99.90
57636;DHT22;43465;50.728;4.160;2023-05-29T02:40:39;13.80;99.90
57636;DHT22;43465;50.728;4.160;2023-05-29T02:43:05;13.70;99.90
57636;DHT22;43465;50.728;4.160;2023-05-29T02:45:31;13.70;99.90
57636;DHT22;43465;50.728;4.160;2023-05-29T02:47:57;13.70;99.90
57636;DHT22;43465;50.728;4.160;2023-05-29T02:50:23;13.70;99.90
57636;DHT22;43465;50.728;4.160;2023-05-29T02:52:48;13.70;99.90
57636;DHT22;43465;50.728;4.160;2023-05-29T02:55:15;13.70;99.90
57636;DHT22;43465;50.728;4.160;2023-05-29T02:57:40;13.70;99.90
57636;DHT22;43465;50.728;4.160;2023-05-29T03:00:07;13.70;99.90
57636;DHT22;43465;50.728;4.160;2023-05-29T03:02:33;13.70;99.90
57636;DHT22;43465;50.728;4.160;2023-05-29T03:05:00;13.60;99.90
57636;DHT22;43465;50.728;4.160;2023-05-29T03:07:26;13.60;99.90
57636;DHT22;43465;50.728;4.160;2023-05-29T03:09:52;13.50;99.90
57636;DHT22;43465;50.728;4.160;2023-05-29T03:12:18;13.60;99.90
57636;DHT22;43465;50.728;4.160;2023-05-29T03:14:44;13.50;99.90
57636;DHT22;43465;50.728;4.160;2023-05-29T03:17:10;13.50;99.90
57636;DHT22;43465;50.728;4.160;2023-05-29T03:19:36;13.40;99.90
57636;DHT22;43465;50.728;4.160;2023-05-29T03:22:03;13.30;99.90
57636;DHT22;43465;50.728;4.160;2023-05-29T03:24:28;13.30;99.90
57636;DHT22;43465;50.728;4.160;2023-05-29T03:26:54;13.30;99.90
57636;DHT22;43465;50.728;4.160;2023-05-29T03:29:21;13.30;99.90
57636;DHT22;43465;50.728;4.160;2023-05-29T03:31:47;13.10;99.90
57636;DHT22;43465;50.728;4.160;2023-05-29T03:34:13;13.00;99.90
57636;DHT22;43465;50.728;4.160;2023-05-29T03:36:39;12.80;99.90
57636;DHT22;43465;50.728;4.160;2023-05-29T03:39:04;12.70;99.90
57636;DHT22;43465;50.728;4.160;2023-05-29T03:41:30;12.60;99.90
57636;DHT22;43465;50.728;4.160;2023-05-29T03:43:56;12.60;99.90
57636;DHT22;43465;50.728;4.160;2023-05-29T03:46:21;12.60;99.90
57636;DHT22;43465;50.728;4.160;2023-05-29T03:48:47;12.50;99.90
57636;DHT22;43465;50.728;4.160;2023-05-29T03:51:13;12.50;99.90
57636;DHT22;43465;50.728;4.160;2023-05-29T03:53:38;12.40;99.90
57636;DHT22;43465;50.728;4.160;2023-05-29T03:56:04;12.30;99.90
57636;DHT22;43465;50.728;4.160;2023-05-29T03:58:30;12.40;99.90
57636;DHT22;43465;50.728;4.160;2023-05-29T04:00:56;12.50;99.90
57636;DHT22;43465;50.728;4.160;2023-05-29T04:03:22;12.40;99.90
57636;DHT22;43465;50.728;4.160;2023-05-29T04:05:48;12.50;99.90
57636;DHT22;43465;50.728;4.160;2023-05-29T04:08:14;12.50;99.90
57636;DHT22;43465;50.728;4.160;2023-05-29T04:10:39;12.50;99.90
57636;DHT22;43465;50.728;4.160;2023-05-29T04:13:05;12.50;99.90
57636;DHT22;43465;50.728;4.160;2023-05-29T04:15:33;12.50;99.90
57636;DHT22;43465;50.728;4.160;2023-05-29T04:18:00;12.40;99.90
57636;DHT22;43465;50.728;4.160;2023-05-29T04:20:26;12.40;99.90
57636;DHT22;43465;50.728;4.160;2023-05-29T04:22:51;12.40;99.90
57636;DHT22;43465;50.728;4.160;2023-05-29T04:25:17;12.30;99.90
57636;DHT22;43465;50.728;4.160;2023-05-29T04:27:44;12.50;99.90
57636;DHT22;43465;50.728;4.160;2023-05-29T04:30:14;12.40;99.90
57636;DHT22;43465;50.728;4.160;2023-05-29T04:32:40;12.40;99.90
57636;DHT22;43465;50.728;4.160;2023-05-29T04:35:06;12.30;99.90
57636;DHT22;43465;50.728;4.160;2023-05-29T04:37:32;12.30;99.90
57636;DHT22;43465;50.728;4.160;2023-05-29T04:40:06;12.40;99.90
57636;DHT22;43465;50.728;4.160;2023-05-29T04:42:35;12.40;99.90
57636;DHT22;43465;50.728;4.160;2023-05-29T04:45:01;12.40;99.90
57636;DHT22;43465;50.728;4.160;2023-05-29T04:47:27;12.40;99.90
57636;DHT22;43465;50.728;4.160;2023-05-29T04:49:54;12.30;99.90
57636;DHT22;43465;50.728;4.160;2023-05-29T04:52:19;12.30;99.90
57636;DHT22;43465;50.728;4.160;2023-05-29T04:54:46;12.30;99.90
57636;DHT22;43465;50.728;4.160;2023-05-29T04:57:12;12.40;99.90
57636;DHT22;43465;50.728;4.160;2023-05-29T04:59:38;12.50;99.90
57636;DHT22;43465;50.728;4.160;2023-05-29T05:02:04;12.50;99.90
57636;DHT22;43465;50.728;4.160;2023-05-29T05:04:31;12.50;99.90
57636;DHT22;43465;50.728;4.160;2023-05-29T05:06:57;12.40;99.90
57636;DHT22;43465;50.728;4.160;2023-05-29T05:09:23;12.60;99.90
57636;DHT22;43465;50.728;4.160;2023-05-29T05:11:49;12.70;99.90
57636;DHT22;43465;50.728;4.160;2023-05-29T05:14:14;12.70;99.90
57636;DHT22;43465;50.728;4.160;2023-05-29T05:16:40;12.70;99.90
57636;DHT22;43465;50.728;4.160;2023-05-29T05:19:05;12.80;99.90
57636;DHT22;43465;50.728;4.160;2023-05-29T05:21:31;12.80;99.90
57636;DHT22;43465;50.728;4.160;2023-05-29T05:23:58;12.90;99.90
57636;DHT22;43465;50.728;4.160;2023-05-29T05:26:24;13.00;99.90
57636;DHT22;43465;50.728;4.160;2023-05-29T05:28:51;12.90;99.90
57636;DHT22;43465;50.728;4.160;2023-05-29T05:31:17;12.80;99.90
57636;DHT22;43465;50.728;4.160;2023-05-29T05:33:42;12.90;99.90
57636;DHT22;43465;50.728;4.160;2023-05-29T05:36:08;13.10;99.90
57636;DHT22;43465;50.728;4.160;2023-05-29T05:38:33;13.10;99.90
57636;DHT22;43465;50.728;4.160;2023-05-29T05:40:59;13.10;99.90
57636;DHT22;43465;50.728;4.160;2023-05-29T05:43:25;13.20;99.90
57636;DHT22;43465;50.728;4.160;2023-05-29T05:45:52;13.20;99.90
57636;DHT22;43465;50.728;4.160;2023-05-29T05:48:18;13.30;99.90
57636;DHT22;43465;50.728;4.160;2023-05-29T05:50:43;13.50;99.90
57636;DHT22;43465;50.728;4.160;2023-05-29T05:53:09;13.50;99.90
57636;DHT22;43465;50.728;4.160;2023-05-29T05:55:35;13.60;99.90
57636;DHT22;43465;50.728;4.160;2023-05-29T05:58:00;13.60;99.90
57636;DHT22;43465;50.728;4.160;2023-05-29T06:00:26;13.80;99.90
57636;DHT22;43465;50.728;4.160;2023-05-29T06:02:51;13.80;99.90
57636;DHT22;43465;50.728;4.160;2023-05-29T06:05:17;13.60;99.90
57636;DHT22;43465;50.728;4.160;2023-05-29T06:07:43;13.60;99.90
57636;DHT22;43465;50.728;4.160;2023-05-29T06:10:09;13.70;99.90
57636;DHT22;43465;50.728;4.160;2023-05-29T06:12:35;13.80;99.90
57636;DHT22;43465;50.728;4.160;2023-05-29T06:15:01;13.80;99.90
57636;DHT22;43465;50.728;4.160;2023-05-29T06:17:26;13.90;99.90
57636;DHT22;43465;50.728;4.160;2023-05-29T06:19:52;13.90;99.90
57636;DHT22;43465;50.728;4.160;2023-05-29T06:22:18;14.10;99.90
57636;DHT22;43465;50.728;4.160;2023-05-29T06:24:44;14.20;99.90
57636;DHT22;43465;50.728;4.160;2023-05-29T06:27:10;14.40;99.90
57636;DHT22;43465;50.728;4.160;2023-05-29T06:29:36;14.30;99.90
57636;DHT22;43465;50.728;4.160;2023-05-29T06:32:02;14.50;99.90
57636;DHT22;43465;50.728;4.160;2023-05-29T06:34:27;14.60;99.90
57636;DHT22;43465;50.728;4.160;2023-05-29T06:36:53;14.60;99.90
57636;DHT22;43465;50.728;4.160;2023-05-29T06:39:18;14.40;99.90
57636;DHT22;43465;50.728;4.160;2023-05-29T06:41:45;14.50;99.90
57636;DHT22;43465;50.728;4.160;2023-05-29T06:44:11;14.60;99.90
57636;DHT22;43465;50.728;4.160;2023-05-29T06:46:37;14.60;99.90
57636;DHT22;43465;50.728;4.160;2023-05-29T06:49:03;14.70;99.90
57636;DHT22;43465;50.728;4.160;2023-05-29T06:51:28;14.70;99.90
57636;DHT22;43465;50.728;4.160;2023-05-29T06:53:58;14.70;99.90
57636;DHT22;43465;50.728;4.160;2023-05-29T06:56:23;14.90;99.90
57636;DHT22;43465;50.728;4.160;2023-05-29T06:58:49;14.70;99.90
57636;DHT22;43465;50.728;4.160;2023-05-29T07:01:15;14.80;99.90
57636;DHT22;43465;50.728;4.160;2023-05-29T07:03:42;15.00;99.90
57636;DHT22;43465;50.728;4.160;2023-05-29T07:06:08;14.90;99.90
57636;DHT22;43465;50.728;4.160;2023-05-29T07:08:34;14.90;99.90
57636;DHT22;43465;50.728;4.160;2023-05-29T07:11:00;15.00;99.90
57636;DHT22;43465;50.728;4.160;2023-05-29T07:13:26;15.20;99.90
57636;DHT22;43465;50.728;4.160;2023-05-29T07:15:52;15.20;99.90
57636;DHT22;43465;50.728;4.160;2023-05-29T07:18:18;15.20;99.90
57636;DHT22;43465;50.728;4.160;2023-05-29T07:20:44;15.20;99.90
57636;DHT22;43465;50.728;4.160;2023-05-29T07:23:09;15.30;99.90
57636;DHT22;43465;50.728;4.160;2023-05-29T07:25:35;15.20;99.90
57636;DHT22;43465;50.728;4.160;2023-05-29T07:28:01;15.20;99.90
57636;DHT22;43465;50.728;4.160;2023-05-29T07:30:27;15.30;99.90
57636;DHT22;43465;50.728;4.160;2023-05-29T07:32:52;15.30;99.90
57636;DHT22;43465;50.728;4.160;2023-05-29T07:35:18;15.20;99.90
57636;DHT22;43465;50.728;4.160;2023-05-29T07:37:43;15.20;99.90
57636;DHT22;43465;50.728;4.160;2023-05-29T07:40:09;15.30;99.90
57636;DHT22;43465;50.728;4.160;2023-05-29T07:42:35;15.40;99.90
57636;DHT22;43465;50.728;4.160;2023-05-29T07:45:01;15.50;99.90
57636;DHT22;43465;50.728;4.160;2023-05-29T07:47:27;15.70;99.90
57636;DHT22;43465;50.728;4.160;2023-05-29T07:49:53;15.80;99.90
57636;DHT22;43465;50.728;4.160;2023-05-29T07:52:19;15.80;99.90
57636;DHT22;43465;50.728;4.160;2023-05-29T07:54:44;15.90;99.90
57636;DHT22;43465;50.728;4.160;2023-05-29T07:57:10;15.90;99.90
57636;DHT22;43465;50.728;4.160;2023-05-29T07:59:36;15.80;99.90
57636;DHT22;43465;50.728;4.160;2023-05-29T08:02:02;15.90;99.90
57636;DHT22;43465;50.728;4.160;2023-05-29T08:04:29;16.10;99.90
57636;DHT22;43465;50.728;4.160;2023-05-29T08:06:56;16.20;99.90
57636;DHT22;43465;50.728;4.160;2023-05-29T08:09:21;16.30;99.90
57636;DHT22;43465;50.728;4.160;2023-05-29T08:11:47;16.50;99.90
57636;DHT22;43465;50.728;4.160;2023-05-29T08:14:16;16.60;99.90
57636;DHT22;43465;50.728;4.160;2023-05-29T08:16:42;16.70;99.90
57636;DHT22;43465;50.728;4.160;2023-05-29T08:19:08;16.60;99.90
57636;DHT22;43465;50.728;4.160;2023-05-29T08:21:33;16.60;99.90
57636;DHT22;43465;50.728;4.160;2023-05-29T08:23:59;16.60;99.90
57636;DHT22;43465;50.728;4.160;2023-05-29T08:26:26;16.60;99.90
57636;DHT22;43465;50.728;4.160;2023-05-29T08:28:51;16.80;99.90
57636;DHT22;43465;50.728;4.160;2023-05-29T08:31:17;16.90;99.90
57636;DHT22;43465;50.728;4.160;2023-05-29T08:33:43;17.00;99.90
57636;DHT22;43465;50.728;4.160;2023-05-29T08:36:09;17.30;99.90
57636;DHT22;43465;50.728;4.160;2023-05-29T08:38:35;17.40;99.90
57636;DHT22;43465;50.728;4.160;2023-05-29T08:41:01;17.40;99.90
57636;DHT22;43465;50.728;4.160;2023-05-29T08:43:31;17.50;99.90
57636;DHT22;43465;50.728;4.160;2023-05-29T08:46:00;17.20;99.90
57636;DHT22;43465;50.728;4.160;2023-05-29T08:48:28;17.20;99.90
57636;DHT22;43465;50.728;4.160;2023-05-29T08:50:55;17.20;99.90
57636;DHT22;43465;50.728;4.160;2023-05-29T08:53:22;17.20;99.90
57636;DHT22;43465;50.728;4.160;2023-05-29T08:55:48;17.20;99.90
57636;DHT22;43465;50.728;4.160;2023-05-29T08:58:17;17.20;99.90
57636;DHT22;43465;50.728;4.160;2023-05-29T09:00:45;17.40;99.90
57636;DHT22;43465;50.728;4.160;2023-05-29T09:03:11;17.60;99.90
57636;DHT22;43465;50.728;4.160;2023-05-29T09:05:39;17.60;99.90
57636;DHT22;43465;50.728;4.160;2023-05-29T09:08:09;17.60;99.90
57636;DHT22;43465;50.728;4.160;2023-05-29T09:10:38;17.60;99.90
57636;DHT22;43465;50.728;4.160;2023-05-29T09:13:05;17.60;99.90
57636;DHT22;43465;50.728;4.160;2023-05-29T09:15:31;17.70;99.90
57636;DHT22;43465;50.728;4.160;2023-05-29T09:17:57;17.80;99.90
57636;DHT22;43465;50.728;4.160;2023-05-29T09:20:24;17.80;99.90
57636;DHT22;43465;50.728;4.160;2023-05-29T09:23:04;17.90;99.90
57636;DHT22;43465;50.728;4.160;2023-05-29T09:25:31;18.00;99.90
57636;DHT22;43465;50.728;4.160;2023-05-29T09:28:03;17.80;99.90
57636;DHT22;43465;50.728;4.160;2023-05-29T09:33:00;17.50;99.90
57636;DHT22;43465;50.728;4.160;2023-05-29T09:35:38;17.50;99.90
57636;DHT22;43465;50.728;4.160;2023-05-29T09:38:06;17.70;99.90
57636;DHT22;43465;50.728;4.160;2023-05-29T09:40:39;17.90;99.90
57636;DHT22;43465;50.728;4.160;2023-05-29T09:43:16;18.00;99.90
57636;DHT22;43465;50.728;4.160;2023-05-29T09:45:47;18.00;99.90
57636;DHT22;43465;50.728;4.160;2023-05-29T09:48:18;17.90;99.90
57636;DHT22;43465;50.728;4.160;2023-05-29T09:50:47;17.90;99.90
57636;DHT22;43465;50.728;4.160;2023-05-29T09:53:21;17.90;99.90
57636;DHT22;43465;50.728;4.160;2023-05-29T09:55:50;17.90;99.90
57636;DHT22;43465;50.728;4.160;2023-05-29T09:58:20;17.90;99.90
57636;DHT22;43465;50.728;4.160;2023-05-29T10:00:46;18.00;99.90
57636;DHT22;43465;50.728;4.160;2023-05-29T10:03:13;18.20;99.90
57636;DHT22;43465;50.728;4.160;2023-05-29T10:05:40;18.20;99.90
57636;DHT22;43465;50.728;4.160;2023-05-29T10:08:09;18.30;99.90
57636;DHT22;43465;50.728;4.160;2023-05-29T10:10:37;18.30;99.90
57636;DHT22;43465;50.728;4.160;2023-05-29T10:13:05;18.30;99.90
57636;DHT22;43465;50.728;4.160;2023-05-29T10:15:32;18.30;99.90
57636;DHT22;43465;50.728;4.160;2023-05-29T10:18:20;18.50;99.90
57636;DHT22;43465;50.728;4.160;2023-05-29T10:20:50;18.50;99.90
57636;DHT22;43465;50.728;4.160;2023-05-29T10:23:23;18.50;99.90
57636;DHT22;43465;50.728;4.160;2023-05-29T10:25:52;18.60;99.90
57636;DHT22;43465;50.728;4.160;2023-05-29T10:28:19;18.60;99.90
57636;DHT22;43465;50.728;4.160;2023-05-29T10:31:01;18.60;99.90
57636;DHT22;43465;50.728;4.160;2023-05-29T10:36:22;18.80;99.90
57636;DHT22;43465;50.728;4.160;2023-05-29T10:38:52;18.80;99.40
57636;DHT22;43465;50.728;4.160;2023-05-29T10:44:00;19.00;99.80
57636;DHT22;43465;50.728;4.160;2023-05-29T10:51:42;19.10;99.00
57636;DHT22;43465;50.728;4.160;2023-05-29T10:54:08;19.20;99.90
57636;DHT22;43465;50.728;4.160;2023-05-29T10:56:34;19.30;99.10
57636;DHT22;43465;50.728;4.160;2023-05-29T10:59:00;19.50;99.40
57636;DHT22;43465;50.728;4.160;2023-05-29T11:01:30;19.70;98.90
57636;DHT22;43465;50.728;4.160;2023-05-29T11:06:43;19.50;98.70
57636;DHT22;43465;50.728;4.160;2023-05-29T11:12:16;19.50;97.50
57636;DHT22;43465;50.728;4.160;2023-05-29T11:20:08;19.50;96.60
57636;DHT22;43465;50.728;4.160;2023-05-29T11:25:14;19.70;97.80
57636;DHT22;43465;50.728;4.160;2023-05-29T11:27:41;19.80;96.20
57636;DHT22;43465;50.728;4.160;2023-05-29T11:30:08;19.80;97.10
57636;DHT22;43465;50.728;4.160;2023-05-29T11:32:34;19.90;96.30
57636;DHT22;43465;50.728;4.160;2023-05-29T11:35:07;19.90;96.80
57636;DHT22;43465;50.728;4.160;2023-05-29T11:37:35;20.00;96.20
57636;DHT22;43465;50.728;4.160;2023-05-29T11:40:06;20.00;95.90
57636;DHT22;43465;50.728;4.160;2023-05-29T11:42:33;20.20;97.10
57636;DHT22;43465;50.728;4.160;2023-05-29T11:45:19;20.40;96.10
57636;DHT22;43465;50.728;4.160;2023-05-29T11:47:56;20.60;95.60
57636;DHT22;43465;50.728;4.160;2023-05-29T11:50:30;20.70;95.70
57636;DHT22;43465;50.728;4.160;2023-05-29T11:52:57;20.90;96.30
57636;DHT22;43465;50.728;4.160;2023-05-29T11:55:23;21.00;95.80
57636;DHT22;43465;50.728;4.160;2023-05-29T11:57:57;20.90;94.60
57636;DHT22;43465;50.728;4.160;2023-05-29T12:00:24;20.90;95.00
57636;DHT22;43465;50.728;4.160;2023-05-29T12:02:51;20.90;94.50
57636;DHT22;43465;50.728;4.160;2023-05-29T12:05:17;20.90;95.30
57636;DHT22;43465;50.728;4.160;2023-05-29T12:07:56;21.00;94.80
57636;DHT22;43465;50.728;4.160;2023-05-29T12:10:22;21.10;93.30
57636;DHT22;43465;50.728;4.160;2023-05-29T12:12:57;21.10;94.20
57636;DHT22;43465;50.728;4.160;2023-05-29T12:15:23;21.20;93.60
57636;DHT22;43465;50.728;4.160;2023-05-29T12:17:50;21.10;93.60
57636;DHT22;43465;50.728;4.160;2023-05-29T12:20:18;21.10;92.80
57636;DHT22;43465;50.728;4.160;2023-05-29T12:22:45;21.10;93.80
57636;DHT22;43465;50.728;4.160;2023-05-29T12:25:12;21.20;94.20
57636;DHT22;43465;50.728;4.160;2023-05-29T12:27:39;21.30;93.90
57636;DHT22;43465;50.728;4.160;2023-05-29T12:30:14;21.40;93.10
57636;DHT22;43465;50.728;4.160;2023-05-29T12:32:43;21.40;93.10
57636;DHT22;43465;50.728;4.160;2023-05-29T12:35:26;21.40;93.70
57636;DHT22;43465;50.728;4.160;2023-05-29T12:42:54;21.50;91.20
57636;DHT22;43465;50.728;4.160;2023-05-29T12:45:20;21.60;92.80
57636;DHT22;43465;50.728;4.160;2023-05-29T12:50:24;21.40;91.00
57636;DHT22;43465;50.728;4.160;2023-05-29T12:52:58;21.30;90.60
57636;DHT22;43465;50.728;4.160;2023-05-29T12:55:25;21.20;91.40
57636;DHT22;43465;50.728;4.160;2023-05-29T12:57:51;21.20;91.40
57636;DHT22;43465;50.728;4.160;2023-05-29T13:00:19;21.10;90.90
57636;DHT22;43465;50.728;4.160;2023-05-29T13:02:46;21.10;91.80
57636;DHT22;43465;50.728;4.160;2023-05-29T13:05:13;21.20;91.30
57636;DHT22;43465;50.728;4.160;2023-05-29T13:07:39;21.20;91.30
57636;DHT22;43465;50.728;4.160;2023-05-29T13:10:05;21.20;90.10
57636;DHT22;43465;50.728;4.160;2023-05-29T13:12:31;21.30;91.80
57636;DHT22;43465;50.728;4.160;2023-05-29T13:14:57;21.30;90.50
57636;DHT22;43465;50.728;4.160;2023-05-29T13:17:22;21.30;90.40
57636;DHT22;43465;50.728;4.160;2023-05-29T13:19:48;21.30;91.30
57636;DHT22;43465;50.728;4.160;2023-05-29T13:22:14;21.30;89.40
57636;DHT22;43465;50.728;4.160;2023-05-29T13:24:40;21.40;90.80
57636;DHT22;43465;50.728;4.160;2023-05-29T13:27:06;21.50;89.60
57636;DHT22;43465;50.728;4.160;2023-05-29T13:29:32;21.50;90.90
57636;DHT22;43465;50.728;4.160;2023-05-29T13:31:58;21.50;90.00
57636;DHT22;43465;50.728;4.160;2023-05-29T13:34:24;21.40;90.90
57636;DHT22;43465;50.728;4.160;2023-05-29T13:36:54;21.30;90.20
57636;DHT22;43465;50.728;4.160;2023-05-29T13:39:20;21.30;90.90
57636;DHT22;43465;50.728;4.160;2023-05-29T13:41:46;21.30;91.40
57636;DHT22;43465;50.728;4.160;2023-05-29T13:44:11;21.40;91.50
57636;DHT22;43465;50.728;4.160;2023-05-29T13:46:37;21.60;92.50
57636;DHT22;43465;50.728;4.160;2023-05-29T13:49:03;21.60;89.70
57636;DHT22;43465;50.728;4.160;2023-05-29T13:51:29;21.70;91.40
57636;DHT22;43465;50.728;4.160;2023-05-29T13:53:54;22.00;91.50
57636;DHT22;43465;50.728;4.160;2023-05-29T13:56:20;22.00;90.60
57636;DHT22;43465;50.728;4.160;2023-05-29T13:58:46;22.10;91.00
57636;DHT22;43465;50.728;4.160;2023-05-29T14:01:11;22.20;89.30
57636;DHT22;43465;50.728;4.160;2023-05-29T14:03:38;22.20;89.80
57636;DHT22;43465;50.728;4.160;2023-05-29T14:06:04;22.20;90.00
57636;DHT22;43465;50.728;4.160;2023-05-29T14:08:31;22.30;87.80
57636;DHT22;43465;50.728;4.160;2023-05-29T14:10:56;22.40;87.40
57636;DHT22;43465;50.728;4.160;2023-05-29T14:13:22;22.50;88.90
57636;DHT22;43465;50.728;4.160;2023-05-29T14:15:48;22.80;88.90
57636;DHT22;43465;50.728;4.160;2023-05-29T14:18:15;23.10;88.40
57636;DHT22;43465;50.728;4.160;2023-05-29T14:20:41;23.50;84.70
57636;DHT22;43465;50.728;4.160;2023-05-29T14:23:06;23.80;85.10
57636;DHT22;43465;50.728;4.160;2023-05-29T14:25:34;24.30;83.60
57636;DHT22;43465;50.728;4.160;2023-05-29T14:28:00;24.50;80.70
57636;DHT22;43465;50.728;4.160;2023-05-29T14:30:25;24.80;81.30
57636;DHT22;43465;50.728;4.160;2023-05-29T14:32:51;25.00;78.70
57636;DHT22;43465;50.728;4.160;2023-05-29T14:35:17;25.50;77.60
57636;DHT22;43465;50.728;4.160;2023-05-29T14:37:42;25.90;75.40
57636;DHT22;43465;50.728;4.160;2023-05-29T14:40:09;26.20;74.20
57636;DHT22;43465;50.728;4.160;2023-05-29T14:42:34;26.30;73.30
57636;DHT22;43465;50.728;4.160;2023-05-29T14:45:00;26.60;72.40
57636;DHT22;43465;50.728;4.160;2023-05-29T14:47:26;26.50;69.90
57636;DHT22;43465;50.728;4.160;2023-05-29T14:49:52;26.50;70.70
57636;DHT22;43465;50.728;4.160;2023-05-29T14:52:17;26.20;70.30
57636;DHT22;43465;50.728;4.160;2023-05-29T14:54:43;26.30;72.30
57636;DHT22;43465;50.728;4.160;2023-05-29T14:57:09;26.20;70.10
57636;DHT22;43465;50.728;4.160;2023-05-29T14:59:34;26.40;70.40
57636;DHT22;43465;50.728;4.160;2023-05-29T15:02:00;26.50;68.80
57636;DHT22;43465;50.728;4.160;2023-05-29T15:04:26;26.30;68.60
57636;DHT22;43465;50.728;4.160;2023-05-29T15:06:51;26.20;68.90
57636;DHT22;43465;50.728;4.160;2023-05-29T15:09:19;26.00;69.60
57636;DHT22;43465;50.728;4.160;2023-05-29T15:11:46;25.80;70.40
57636;DHT22;43465;50.728;4.160;2023-05-29T15:14:12;25.60;70.80
57636;DHT22;43465;50.728;4.160;2023-05-29T15:16:38;25.30;69.80
57636;DHT22;43465;50.728;4.160;2023-05-29T15:19:04;25.30;71.20
57636;DHT22;43465;50.728;4.160;2023-05-29T15:21:30;25.10;70.80
57636;DHT22;43465;50.728;4.160;2023-05-29T15:23:56;25.00;70.50
57636;DHT22;43465;50.728;4.160;2023-05-29T15:26:22;24.90;70.80
57636;DHT22;43465;50.728;4.160;2023-05-29T15:28:47;24.70;71.20
57636;DHT22;43465;50.728;4.160;2023-05-29T15:31:13;24.80;72.70
57636;DHT22;43465;50.728;4.160;2023-05-29T15:33:39;24.80;71.60
57636;DHT22;43465;50.728;4.160;2023-05-29T15:36:06;24.60;71.30
57636;DHT22;43465;50.728;4.160;2023-05-29T15:38:32;24.50;71.90
57636;DHT22;43465;50.728;4.160;2023-05-29T15:40:58;24.40;72.60
57636;DHT22;43465;50.728;4.160;2023-05-29T15:43:25;24.10;73.00
57636;DHT22;43465;50.728;4.160;2023-05-29T15:45:51;23.90;75.40
57636;DHT22;43465;50.728;4.160;2023-05-29T15:48:17;23.70;74.30
57636;DHT22;43465;50.728;4.160;2023-05-29T15:50:42;23.30;75.10
57636;DHT22;43465;50.728;4.160;2023-05-29T15:53:08;23.10;73.80
57636;DHT22;43465;50.728;4.160;2023-05-29T15:55:34;22.90;74.90
57636;DHT22;43465;50.728;4.160;2023-05-29T15:57:59;22.60;75.40
57636;DHT22;43465;50.728;4.160;2023-05-29T16:00:25;22.40;75.40
57636;DHT22;43465;50.728;4.160;2023-05-29T16:02:51;22.50;76.20
57636;DHT22;43465;50.728;4.160;2023-05-29T16:05:17;22.40;75.20
57636;DHT22;43465;50.728;4.160;2023-05-29T16:07:43;22.10;76.90